Tombarra — MPRD6 — position and weather

sailwx.info

Track history (hours):
 
Tides and Currents Weather Stations Pressure Air Temp Water Temp Dewpoint Dewpoint Depression Visibility Wind Speed Wind Dir Waves Ship Positions

Tombarra

Last reported at 2014-Oct-19 11:33 UTC. Time now 2014-Oct-30 13:07 UTC.
Position N 39°29' W 073°56'.
Warning: this ship's position is 11 days out of date.

Length 199 m; draft 8.7 m.

Type: Ship. MMSI: 232971000.

Date/timePositionNaut miles runAvg speedWind from/ knotsBaromVisibWave heightAir tempDewpointWater temp
2014-Oct-19 11:33N 39°29' W 073°56'1717.4
2014-Oct-19 10:33N 39°47' W 073°52'3617.1
2014-Oct-19 08:27N 40°22' W 073°49'1112.2
2014-Oct-19 07:33N 40°31' W 073°58'1010.3
2014-Oct-19 06:33N 40°39' W 074°07'3 2.9
2014-Oct-19 05:33N 40°41' W 074°08'0 0.4
2014-Oct-19 04:32N 40°42' W 074°09'0 0.0
2014-Oct-19 03:32N 40°42' W 074°09'0 0.0
2014-Oct-19 02:32N 40°42' W 074°09'0 0.0
2014-Oct-19 01:32N 40°42' W 074°09'0 0.0
2014-Oct-19 00:32N 40°42' W 074°09'0 0.0
2014-Oct-18 23:32N 40°42' W 074°09'0 0.0
2014-Oct-18 22:29N 40°42' W 074°09'0 0.0
2014-Oct-18 21:33N 40°42' W 074°09'4 3.7
2014-Oct-18 20:33N 40°39' W 074°05'1 1.2
2014-Oct-18 19:33N 40°40' W 074°04'0 0.0
2014-Oct-18 16:21N 40°40' W 074°04'0 0.0
2014-Oct-18 15:21N 40°40' W 074°04'0 0.0
2014-Oct-18 13:21N 40°40' W 074°04'0 0.0
2014-Oct-18 12:12N 40°40' W 074°04'0 0.0
2014-Oct-18 11:27N 40°40' W 074°04'2 2.5
2014-Oct-18 10:33N 40°38' W 074°03'1110.5
2014-Oct-18 09:33N 40°29' W 073°55'1212.1
2014-Oct-18 08:33N 40°28' W 073°39'1616.2
2014-Oct-18 07:33N 40°30' W 073°18'1615.8
2014-Oct-18 06:33N 40°31' W 072°58'1615.8
2014-Oct-18 05:33N 40°30' W 072°37'1615.8
2014-Oct-18 04:33N 40°31' W 072°16'1616.2
2014-Oct-18 03:33N 40°31' W 071°55'1616.3
2014-Oct-18 02:33N 40°32' W 071°33'1616.3
2014-Oct-18 01:33N 40°32' W 071°12'1616.4
2014-Oct-18 00:33N 40°33' W 070°50'1716.6
2014-Oct-17 23:33N 40°33' W 070°29'1616.5
2014-Oct-17 22:33N 40°34' W 070°07'1716.3
2014-Oct-17 21:32N 40°34' W 069°45'1616.3
2014-Oct-17 20:33N 40°35' W 069°24'1716.6
2014-Oct-17 19:30N 40°35' W 069°01'1717.4
2014-Oct-17 18:31N 40°35' W 068°38'2417.9
2014-Oct-17 17:11N 40°40' W 068°08'29715.8
2014-Oct-16 22:25N 44°18' W 063°33'1214.3
2014-Oct-16 21:33N 44°30' W 063°30'8 8.3
2014-Oct-16 20:33N 44°38' W 063°32'1 0.8
2014-Oct-16 19:26N 44°37' W 063°31'0 0.0
2014-Oct-16 18:29N 44°37' W 063°31'0 0.0
2014-Oct-16 17:29N 44°37' W 063°31'0 0.0
2014-Oct-16 16:32N 44°37' W 063°31'0 0.0
2014-Oct-16 15:32N 44°37' W 063°31'0 0.0
2014-Oct-16 14:32N 44°37' W 063°31'0 0.0
2014-Oct-16 13:32N 44°37' W 063°31'0 0.0
2014-Oct-16 12:32N 44°37' W 063°31'0 0.0
2014-Oct-16 11:32N 44°37' W 063°31'0 0.1
2014-Oct-16 10:33N 44°37' W 063°31'2 2.4
2014-Oct-16 09:33N 44°35' W 063°32'1010.4
2014-Oct-16 08:34N 44°28' W 063°22'  
2014-Oct-09 23:27N 50°25' W 001°28'1214.0
2014-Oct-09 22:33N 50°29' W 001°10'1212.1
2014-Oct-09 21:33N 50°38' W 000°57'1111.2
2014-Oct-09 20:33N 50°46' W 001°10'1010.3
2014-Oct-09 19:33N 50°52' W 001°23'1 1.0
2014-Oct-09 18:33N 50°53' W 001°24'0 0.0
2014-Oct-09 17:33N 50°53' W 001°24'0 0.0
2014-Oct-09 16:33N 50°53' W 001°24'0 0.0
2014-Oct-09 15:33N 50°53' W 001°24'0 0.0
2014-Oct-09 14:33N 50°53' W 001°24'0 0.0
2014-Oct-09 13:33N 50°53' W 001°24'0 0.0
2014-Oct-09 12:33N 50°53' W 001°24'  
Track history (hours):
 
Tides and Currents Weather Stations Pressure Air Temp Water Temp Dewpoint Dewpoint Depression Visibility Wind Speed Wind Dir Waves Ship Positions

Tombarra

Last reported at 2014-Oct-19 11:33 UTC. Time now 2014-Oct-30 13:07 UTC.
Position N 39°29' W 073°56'.
Warning: this ship's position is 11 days out of date.

Length 199 m; draft 8.7 m.

Type: Ship. MMSI: 232971000.

Date/timePositionNaut miles runAvg speedWind from/ knotsBaromVisibWave heightAir tempDewpointWater temp
2014-Oct-19 11:33N 39°29' W 073°56'1717.4
2014-Oct-19 10:33N 39°47' W 073°52'3617.1
2014-Oct-19 08:27N 40°22' W 073°49'1112.2
2014-Oct-19 07:33N 40°31' W 073°58'1010.3
2014-Oct-19 06:33N 40°39' W 074°07'3 2.9
2014-Oct-19 05:33N 40°41' W 074°08'0 0.4
2014-Oct-19 04:32N 40°42' W 074°09'0 0.0
2014-Oct-19 03:32N 40°42' W 074°09'0 0.0
2014-Oct-19 02:32N 40°42' W 074°09'0 0.0
2014-Oct-19 01:32N 40°42' W 074°09'0 0.0
2014-Oct-19 00:32N 40°42' W 074°09'0 0.0
2014-Oct-18 23:32N 40°42' W 074°09'0 0.0
2014-Oct-18 22:29N 40°42' W 074°09'0 0.0
2014-Oct-18 21:33N 40°42' W 074°09'4 3.7
2014-Oct-18 20:33N 40°39' W 074°05'1 1.2
2014-Oct-18 19:33N 40°40' W 074°04'0 0.0
2014-Oct-18 16:21N 40°40' W 074°04'0 0.0
2014-Oct-18 15:21N 40°40' W 074°04'0 0.0
2014-Oct-18 13:21N 40°40' W 074°04'0 0.0
2014-Oct-18 12:12N 40°40' W 074°04'0 0.0
2014-Oct-18 11:27N 40°40' W 074°04'2 2.5
2014-Oct-18 10:33N 40°38' W 074°03'1110.5
2014-Oct-18 09:33N 40°29' W 073°55'1212.1
2014-Oct-18 08:33N 40°28' W 073°39'1616.2
2014-Oct-18 07:33N 40°30' W 073°18'1615.8
2014-Oct-18 06:33N 40°31' W 072°58'1615.8
2014-Oct-18 05:33N 40°30' W 072°37'1615.8
2014-Oct-18 04:33N 40°31' W 072°16'1616.2
2014-Oct-18 03:33N 40°31' W 071°55'1616.3
2014-Oct-18 02:33N 40°32' W 071°33'1616.3
2014-Oct-18 01:33N 40°32' W 071°12'1616.4
2014-Oct-18 00:33N 40°33' W 070°50'1716.6
2014-Oct-17 23:33N 40°33' W 070°29'1616.5
2014-Oct-17 22:33N 40°34' W 070°07'1716.3
2014-Oct-17 21:32N 40°34' W 069°45'1616.3
2014-Oct-17 20:33N 40°35' W 069°24'1716.6
2014-Oct-17 19:30N 40°35' W 069°01'1717.4
2014-Oct-17 18:31N 40°35' W 068°38'2417.9
2014-Oct-17 17:11N 40°40' W 068°08'29715.8
2014-Oct-16 22:25N 44°18' W 063°33'1214.3
2014-Oct-16 21:33N 44°30' W 063°30'8 8.3
2014-Oct-16 20:33N 44°38' W 063°32'1 0.8
2014-Oct-16 19:26N 44°37' W 063°31'0 0.0
2014-Oct-16 18:29N 44°37' W 063°31'0 0.0
2014-Oct-16 17:29N 44°37' W 063°31'0 0.0
2014-Oct-16 16:32N 44°37' W 063°31'0 0.0
2014-Oct-16 15:32N 44°37' W 063°31'0 0.0
2014-Oct-16 14:32N 44°37' W 063°31'0 0.0
2014-Oct-16 13:32N 44°37' W 063°31'0 0.0
2014-Oct-16 12:32N 44°37' W 063°31'0 0.0
2014-Oct-16 11:32N 44°37' W 063°31'0 0.1
2014-Oct-16 10:33N 44°37' W 063°31'2 2.4
2014-Oct-16 09:33N 44°35' W 063°32'1010.4
2014-Oct-16 08:34N 44°28' W 063°22'  
2014-Oct-09 23:27N 50°25' W 001°28'1214.0
2014-Oct-09 22:33N 50°29' W 001°10'1212.1
2014-Oct-09 21:33N 50°38' W 000°57'1111.2
2014-Oct-09 20:33N 50°46' W 001°10'1010.3
2014-Oct-09 19:33N 50°52' W 001°23'1 1.0
2014-Oct-09 18:33N 50°53' W 001°24'0 0.0
2014-Oct-09 17:33N 50°53' W 001°24'0 0.0
2014-Oct-09 16:33N 50°53' W 001°24'0 0.0
2014-Oct-09 15:33N 50°53' W 001°24'0 0.0
2014-Oct-09 14:33N 50°53' W 001°24'0 0.0
2014-Oct-09 13:33N 50°53' W 001°24'0 0.0
2014-Oct-09 12:33N 50°53' W 001°24'  

Dump ship's entire track history